Time;durP1;ratioP1;P1;durP2;ratioP2;P2;SDS_P1;SDS_P2;PMS_P1;PMS_P2;Temp;Humidity;BMP_temperature;BMP_pressure;BME280_temperature;BME280_humidity;BME280_pressure;Samples;Min_cycle;Max_cycle;Signal;HPM_P1;HPM_P2
2023/05/06 00:00:25;;;;;;;26.95;19.50;;;;;;;;;;5072640;28;20469;-67
2023/05/06 00:02:53;;;;;;;27.30;18.85;;;;;;;;;;5072083;28;20045;-67
2023/05/06 00:05:20;;;;;;;26.13;19.13;;;;;;;;;;5054412;28;20044;-66
2023/05/06 00:07:48;;;;;;;24.00;18.42;;;;;;;;;;5054147;28;20110;-66
2023/05/06 00:10:15;;;;;;;24.58;18.00;;;;;;;;;;5072280;28;20044;-66
2023/05/06 00:12:43;;;;;;;26.33;18.58;;;;;;;;;;5072205;28;20037;-67
2023/05/06 00:15:11;;;;;;;24.77;17.92;;;;;;;;;;5072218;28;20048;-67
2023/05/06 00:17:38;;;;;;;25.65;17.55;;;;;;;;;;5072079;28;20040;-67
2023/05/06 00:20:08;;;;;;;22.17;17.40;;;;;;;;;;5072123;28;20041;-66
2023/05/06 00:22:35;;;;;;;24.25;17.60;;;;;;;;;;5072321;28;20048;-66
2023/05/06 00:25:03;;;;;;;25.15;17.42;;;;;;;;;;5072034;28;20072;-66
2023/05/06 00:27:30;;;;;;;22.33;15.90;;;;;;;;;;5072026;28;20119;-67
2023/05/06 00:29:58;;;;;;;24.23;16.27;;;;;;;;;;5072080;28;20578;-66
2023/05/06 00:32:26;;;;;;;22.90;15.35;;;;;;;;;;5072030;28;20439;-66
2023/05/06 00:34:54;;;;;;;23.00;15.40;;;;;;;;;;5074498;28;20040;-66
2023/05/06 00:37:21;;;;;;;20.73;15.93;;;;;;;;;;5057793;28;20045;-67
2023/05/06 00:39:49;;;;;;;19.23;15.10;;;;;;;;;;5074486;28;20509;-67
2023/05/06 00:42:16;;;;;;;17.42;14.48;;;;;;;;;;5075837;28;20389;-66
2023/05/06 00:44:44;;;;;;;21.05;15.00;;;;;;;;;;5075528;28;20068;-66
2023/05/06 00:47:11;;;;;;;20.95;15.05;;;;;;;;;;5075556;28;20037;-67
2023/05/06 00:49:39;;;;;;;22.33;14.75;;;;;;;;;;5041012;28;20050;-66
2023/05/06 00:52:07;;;;;;;20.73;14.93;;;;;;;;;;5074149;28;20041;-67
2023/05/06 00:54:35;;;;;;;20.70;15.73;;;;;;;;;;5075575;28;20119;-67
2023/05/06 00:57:02;;;;;;;23.90;14.98;;;;;;;;;;5057409;28;20368;-67
2023/05/06 00:59:30;;;;;;;18.85;14.02;;;;;;;;;;5074126;28;20044;-66
2023/05/06 01:01:58;;;;;;;18.75;13.82;;;;;;;;;;5075416;28;20498;-67
2023/05/06 01:04:25;;;;;;;20.27;14.05;;;;;;;;;;5057026;28;20067;-67
2023/05/06 01:07:15;;;;;;;19.75;14.75;;;;;;;;;;5075219;28;20444;-67
2023/05/06 01:09:48;;;;;;;19.05;14.52;;;;;;;;;;5057407;28;20056;-67
2023/05/06 01:12:26;;;;;;;16.77;13.68;;;;;;;;;;5075482;28;20056;-67
2023/05/06 01:14:54;;;;;;;18.85;14.02;;;;;;;;;;5075039;28;20071;-67
2023/05/06 01:17:27;;;;;;;17.65;13.63;;;;;;;;;;5075090;28;20040;-66
2023/05/06 01:19:57;;;;;;;17.47;13.57;;;;;;;;;;5040730;28;20048;-66
2023/05/06 01:22:25;;;;;;;19.63;14.23;;;;;;;;;;5057010;28;20051;-66
2023/05/06 01:24:53;;;;;;;20.15;13.35;;;;;;;;;;5073751;28;20127;-67
2023/05/06 01:27:21;;;;;;;18.42;14.27;;;;;;;;;;5074829;28;20094;-67
2023/05/06 01:29:49;;;;;;;22.70;13.70;;;;;;;;;;5056903;28;20044;-67
2023/05/06 01:32:20;;;;;;;18.63;13.50;;;;;;;;;;5056734;28;20490;-66
2023/05/06 01:34:48;;;;;;;18.90;13.18;;;;;;;;;;5073488;28;20106;-67
2023/05/06 01:37:18;;;;;;;17.95;13.32;;;;;;;;;;5056919;28;20449;-67
2023/05/06 01:39:47;;;;;;;19.73;13.23;;;;;;;;;;5056742;28;20147;-67
2023/05/06 01:42:15;;;;;;;17.38;13.10;;;;;;;;;;5074581;28;20041;-67
2023/05/06 01:44:42;;;;;;;21.42;13.00;;;;;;;;;;5056074;28;20078;-66
2023/05/06 01:47:11;;;;;;;19.05;12.88;;;;;;;;;;5073234;28;20040;-66
2023/05/06 01:49:39;;;;;;;19.15;13.57;;;;;;;;;;5073191;28;20044;-67
2023/05/06 01:52:06;;;;;;;18.55;13.43;;;;;;;;;;5073072;28;20532;-67
2023/05/06 01:54:34;;;;;;;17.25;12.50;;;;;;;;;;5073148;28;20048;-66
2023/05/06 01:57:01;;;;;;;17.17;13.00;;;;;;;;;;5056460;28;20049;-67
2023/05/06 01:59:29;;;;;;;17.70;13.00;;;;;;;;;;5072887;28;20048;-67
2023/05/06 02:01:56;;;;;;;15.00;11.95;;;;;;;;;;5073000;28;20048;-67
2023/05/06 02:04:24;;;;;;;16.85;12.45;;;;;;;;;;5073940;28;20059;-66
2023/05/06 02:06:51;;;;;;;15.75;12.18;;;;;;;;;;5074022;28;20078;-67
2023/05/06 02:09:19;;;;;;;18.38;12.75;;;;;;;;;;5056157;28;20037;-66
2023/05/06 02:11:53;;;;;;;16.58;12.23;;;;;;;;;;5056240;28;20044;-67
2023/05/06 02:14:20;;;;;;;19.65;12.30;;;;;;;;;;5073957;28;20047;-66
2023/05/06 02:16:48;;;;;;;19.55;12.70;;;;;;;;;;5055931;28;20036;-67
2023/05/06 02:19:15;;;;;;;16.95;11.82;;;;;;;;;;5072693;28;20053;-66
2023/05/06 02:21:43;;;;;;;16.25;11.95;;;;;;;;;;5055876;28;20047;-67
2023/05/06 02:24:10;;;;;;;17.90;12.05;;;;;;;;;;5056033;28;20098;-67
2023/05/06 02:26:38;;;;;;;16.38;11.65;;;;;;;;;;5056160;28;20052;-66
2023/05/06 02:29:05;;;;;;;15.15;11.52;;;;;;;;;;5056300;28;20044;-67
2023/05/06 02:31:33;;;;;;;19.67;11.65;;;;;;;;;;5074377;28;20044;-67
2023/05/06 02:34:00;;;;;;;17.77;11.55;;;;;;;;;;5056039;28;20052;-67
2023/05/06 02:36:28;;;;;;;15.55;11.20;;;;;;;;;;5056075;28;20048;-67
2023/05/06 02:38:56;;;;;;;15.43;11.10;;;;;;;;;;5072632;28;20064;-66
2023/05/06 02:41:23;;;;;;;16.00;11.02;;;;;;;;;;5073782;28;20113;-66
2023/05/06 02:43:51;;;;;;;16.55;11.43;;;;;;;;;;5073716;28;20044;-67
2023/05/06 02:46:19;;;;;;;19.13;11.40;;;;;;;;;;5056023;28;20040;-66
2023/05/06 02:48:46;;;;;;;14.32;11.40;;;;;;;;;;5072932;28;20044;-67
2023/05/06 02:51:14;;;;;;;15.93;11.13;;;;;;;;;;5055605;28;20048;-67
2023/05/06 02:53:42;;;;;;;13.43;11.07;;;;;;;;;;5056606;28;20044;-67
2023/05/06 02:56:09;;;;;;;16.02;11.07;;;;;;;;;;5073040;28;20076;-66
2023/05/06 02:58:37;;;;;;;15.40;11.07;;;;;;;;;;5055287;28;20044;-67
2023/05/06 03:01:05;;;;;;;17.30;10.48;;;;;;;;;;5073562;28;20033;-67
2023/05/06 03:03:33;;;;;;;15.38;11.27;;;;;;;;;;5071833;28;20513;-67
2023/05/06 03:06:00;;;;;;;15.85;11.38;;;;;;;;;;5055309;28;20049;-66
2023/05/06 03:08:28;;;;;;;16.23;11.50;;;;;;;;;;5055220;28;20079;-66
2023/05/06 03:10:58;;;;;;;16.48;11.10;;;;;;;;;;5071685;28;20530;-69
2023/05/06 03:13:26;;;;;;;14.13;10.27;;;;;;;;;;5054820;28;20074;-65
2023/05/06 03:15:53;;;;;;;16.15;10.32;;;;;;;;;;5055112;28;20041;-66
2023/05/06 03:18:21;;;;;;;13.73;10.55;;;;;;;;;;5055068;28;20044;-66
2023/05/06 03:20:49;;;;;;;13.13;10.00;;;;;;;;;;5055194;28;20040;-66
2023/05/06 03:23:17;;;;;;;18.10;11.63;;;;;;;;;;5071802;28;20399;-66
2023/05/06 03:25:45;;;;;;;18.27;10.43;;;;;;;;;;5054985;28;20051;-66
2023/05/06 03:28:14;;;;;;;14.30;10.70;;;;;;;;;;5055234;28;20131;-66
2023/05/06 03:30:43;;;;;;;13.52;10.60;;;;;;;;;;5054760;28;20076;-67
2023/05/06 03:33:11;;;;;;;17.92;11.02;;;;;;;;;;5071522;28;20049;-66
2023/05/06 03:35:39;;;;;;;16.10;10.27;;;;;;;;;;5072925;28;20055;-67
2023/05/06 03:38:06;;;;;;;15.57;10.52;;;;;;;;;;5054657;28;20106;-67
2023/05/06 03:40:44;;;;;;;13.93;10.32;;;;;;;;;;5039611;28;20049;-67
2023/05/06 03:43:13;;;;;;;14.80;9.55;;;;;;;;;;5038789;28;20102;-67
2023/05/06 03:45:42;;;;;;;16.60;10.30;;;;;;;;;;5054920;28;20048;-67
2023/05/06 03:48:10;;;;;;;12.77;9.38;;;;;;;;;;5054856;28;20068;-67
2023/05/06 03:50:41;;;;;;;12.98;9.65;;;;;;;;;;5054539;28;20135;-67
2023/05/06 03:53:09;;;;;;;14.57;9.07;;;;;;;;;;5072615;28;20510;-66
2023/05/06 03:55:40;;;;;;;15.05;10.27;;;;;;;;;;5071423;28;20040;-67
2023/05/06 03:58:10;;;;;;;12.60;8.35;;;;;;;;;;5071290;28;20080;-67
2023/05/06 04:00:39;;;;;;;13.20;8.68;;;;;;;;;;5071050;28;20094;-67
2023/05/06 04:03:06;;;;;;;14.93;8.63;;;;;;;;;;5072145;28;20056;-67
2023/05/06 04:05:41;;;;;;;12.50;8.43;;;;;;;;;;5071192;28;20052;-66
2023/05/06 04:08:11;;;;;;;12.90;8.88;;;;;;;;;;5072509;28;20549;-67
2023/05/06 04:10:40;;;;;;;10.57;8.18;;;;;;;;;;5058475;28;20062;-66
2023/05/06 04:13:16;;;;;;;12.85;8.43;;;;;;;;;;5075452;28;20586;-67
2023/05/06 04:15:45;;;;;;;10.73;8.05;;;;;;;;;;5074675;28;20561;-66
2023/05/06 04:18:18;;;;;;;10.93;7.47;;;;;;;;;;5076779;28;20040;-65
2023/05/06 04:20:55;;;;;;;10.20;7.75;;;;;;;;;;5095250;28;20044;-66
2023/05/06 04:23:23;;;;;;;11.38;7.88;;;;;;;;;;5112497;28;20059;-67
2023/05/06 04:25:51;;;;;;;11.32;7.68;;;;;;;;;;5112285;28;20039;-66
2023/05/06 04:28:22;;;;;;;12.68;7.32;;;;;;;;;;5096639;28;20106;-67
2023/05/06 04:30:51;;;;;;;14.18;7.72;;;;;;;;;;5094982;28;20520;-67
2023/05/06 04:33:24;;;;;;;11.88;7.68;;;;;;;;;;5095210;28;20131;-66
2023/05/06 04:35:53;;;;;;;12.48;7.30;;;;;;;;;;5094964;28;20484;-66
2023/05/06 04:38:24;;;;;;;10.73;7.35;;;;;;;;;;5111682;28;20456;-66
2023/05/06 04:40:52;;;;;;;11.90;7.20;;;;;;;;;;5094825;28;20147;-66
2023/05/06 04:43:20;;;;;;;11.43;6.53;;;;;;;;;;5111792;28;20036;-66
2023/05/06 04:45:51;;;;;;;10.98;6.47;;;;;;;;;;5111257;28;20105;-67
2023/05/06 04:48:24;;;;;;;9.90;6.70;;;;;;;;;;5094686;28;20048;-67
2023/05/06 04:50:55;;;;;;;8.50;6.15;;;;;;;;;;5094623;28;20715;-68
2023/05/06 04:53:22;;;;;;;13.02;6.57;;;;;;;;;;5055828;28;20051;-68
2023/05/06 04:55:50;;;;;;;9.43;6.38;;;;;;;;;;5094795;28;20494;-69
2023/05/06 04:58:18;;;;;;;9.40;6.90;;;;;;;;;;5094594;28;20505;-69
2023/05/06 05:00:46;;;;;;;11.30;6.25;;;;;;;;;;5077856;28;20439;-69
2023/05/06 05:03:14;;;;;;;10.20;6.57;;;;;;;;;;5094230;28;20044;-68
2023/05/06 05:05:42;;;;;;;9.18;6.60;;;;;;;;;;5095747;28;20052;-69
2023/05/06 05:08:15;;;;;;;9.50;6.30;;;;;;;;;;5094477;28;20036;-69
2023/05/06 05:10:43;;;;;;;9.07;5.88;;;;;;;;;;5094243;28;20059;-67
2023/05/06 05:13:14;;;;;;;11.32;6.50;;;;;;;;;;5077507;28;20044;-68
2023/05/06 05:15:43;;;;;;;9.48;6.10;;;;;;;;;;5094148;28;20135;-70
2023/05/06 05:18:13;;;;;;;8.77;5.88;;;;;;;;;;5093611;28;20059;-68
2023/05/06 05:20:41;;;;;;;10.77;5.97;;;;;;;;;;5093037;28;20135;-69
2023/05/06 05:23:11;;;;;;;6.28;5.43;;;;;;;;;;5093834;28;20520;-68
2023/05/06 05:25:41;;;;;;;8.60;5.90;;;;;;;;;;5077027;28;20059;-68
2023/05/06 05:28:08;;;;;;;10.02;5.78;;;;;;;;;;5095333;28;20043;-68
2023/05/06 05:30:37;;;;;;;7.50;5.40;;;;;;;;;;5094514;28;20494;-67
2023/05/06 05:33:06;;;;;;;8.90;5.38;;;;;;;;;;5091016;28;20036;-65
2023/05/06 05:35:34;;;;;;;9.32;5.78;;;;;;;;;;5084674;28;20401;-65
2023/05/06 05:38:02;;;;;;;7.63;5.47;;;;;;;;;;5070601;28;20481;-66
2023/05/06 05:40:30;;;;;;;8.13;5.32;;;;;;;;;;5094302;28;20051;-65
2023/05/06 05:42:57;;;;;;;6.68;5.13;;;;;;;;;;5094477;28;20040;-66
2023/05/06 05:45:33;;;;;;;11.27;5.82;;;;;;;;;;5093593;28;20048;-65
2023/05/06 05:48:01;;;;;;;7.47;4.72;;;;;;;;;;5076528;28;20121;-66
2023/05/06 05:50:28;;;;;;;11.73;5.95;;;;;;;;;;5095146;28;20075;-65
2023/05/06 05:52:57;;;;;;;6.95;5.45;;;;;;;;;;5073287;28;20592;-66
2023/05/06 05:55:28;;;;;;;8.70;5.85;;;;;;;;;;5093276;28;20044;-65
2023/05/06 05:57:55;;;;;;;14.43;6.55;;;;;;;;;;5093147;28;20563;-65
2023/05/06 06:00:24;;;;;;;11.95;6.00;;;;;;;;;;5093380;28;20432;-66
2023/05/06 06:02:58;;;;;;;7.15;5.05;;;;;;;;;;5076201;28;20574;-66
2023/05/06 06:05:26;;;;;;;6.80;5.45;;;;;;;;;;5094520;28;20051;-65
2023/05/06 06:07:54;;;;;;;8.27;5.47;;;;;;;;;;5076802;28;20036;-66
2023/05/06 06:10:25;;;;;;;7.00;5.22;;;;;;;;;;5091350;28;20048;-66
2023/05/06 06:12:53;;;;;;;7.75;4.82;;;;;;;;;;5093215;28;20048;-66
2023/05/06 06:15:24;;;;;;;9.68;5.50;;;;;;;;;;5093467;28;20073;-70
2023/05/06 06:17:53;;;;;;;6.43;4.82;;;;;;;;;;5093679;28;20048;-67
2023/05/06 06:20:24;;;;;;;6.63;5.60;;;;;;;;;;5093488;28;20032;-67
2023/05/06 06:22:52;;;;;;;6.72;4.95;;;;;;;;;;5084273;28;20045;-67
2023/05/06 06:25:20;;;;;;;7.63;5.20;;;;;;;;;;5075563;28;20064;-68
2023/05/06 06:27:48;;;;;;;6.75;5.03;;;;;;;;;;5086753;28;20051;-68
2023/05/06 06:30:15;;;;;;;7.32;4.88;;;;;;;;;;5081592;28;20047;-67
2023/05/06 06:32:50;;;;;;;7.70;4.68;;;;;;;;;;5085562;28;20036;-67
2023/05/06 06:35:18;;;;;;;7.45;4.68;;;;;;;;;;5052330;28;20068;-67
2023/05/06 06:37:46;;;;;;;6.90;4.50;;;;;;;;;;5076647;28;20047;-67
2023/05/06 06:40:15;;;;;;;8.68;4.65;;;;;;;;;;5094526;28;20390;-67
2023/05/06 06:42:45;;;;;;;6.43;5.00;;;;;;;;;;5094261;28;20034;-67
2023/05/06 06:45:51;;;;;;;7.13;4.20;;;;;;;;;;5031801;28;20053;-67
2023/05/06 06:48:19;;;;;;;9.15;5.63;;;;;;;;;;5032261;28;20045;-67
2023/05/06 06:50:46;;;;;;;6.80;4.38;;;;;;;;;;5054066;28;20133;-66
2023/05/06 06:53:14;;;;;;;9.70;5.72;;;;;;;;;;5094340;28;20043;-67
2023/05/06 06:55:45;;;;;;;13.40;9.32;;;;;;;;;;5094316;28;20032;-67
2023/05/06 06:58:12;;;;;;;9.82;6.90;;;;;;;;;;5085010;28;20040;-67
2023/05/06 07:00:40;;;;;;;5.65;4.20;;;;;;;;;;5079226;28;20040;-66
2023/05/06 07:03:08;;;;;;;5.95;4.75;;;;;;;;;;5078163;28;20082;-65
2023/05/06 07:05:35;;;;;;;7.20;4.35;;;;;;;;;;5079453;28;20206;-67
2023/05/06 07:08:03;;;;;;;6.60;3.97;;;;;;;;;;5075088;28;20475;-67
2023/05/06 07:10:31;;;;;;;10.90;4.50;;;;;;;;;;5073088;28;20093;-67
2023/05/06 07:12:58;;;;;;;6.10;4.78;;;;;;;;;;5073111;28;20040;-67
2023/05/06 07:15:25;;;;;;;7.68;5.20;;;;;;;;;;5081775;28;20410;-65
2023/05/06 07:17:53;;;;;;;6.13;4.57;;;;;;;;;;5073319;28;20062;-67
2023/05/06 07:20:20;;;;;;;7.88;4.43;;;;;;;;;;5073192;28;20111;-66
2023/05/06 07:22:48;;;;;;;6.65;4.28;;;;;;;;;;5068941;28;20534;-67
2023/05/06 07:25:15;;;;;;;6.65;4.32;;;;;;;;;;5072375;28;20094;-66
2023/05/06 07:27:43;;;;;;;5.72;4.15;;;;;;;;;;5072579;28;20055;-66
2023/05/06 07:30:10;;;;;;;7.40;3.70;;;;;;;;;;5075716;28;20048;-67
2023/05/06 07:32:40;;;;;;;7.13;4.20;;;;;;;;;;5092489;28;20470;-67
2023/05/06 07:35:07;;;;;;;8.88;4.00;;;;;;;;;;5092629;28;20044;-67
2023/05/06 07:37:35;;;;;;;6.43;3.55;;;;;;;;;;5092784;28;20036;-67
2023/05/06 07:40:03;;;;;;;4.97;3.35;;;;;;;;;;5092568;28;20089;-67
2023/05/06 07:42:31;;;;;;;6.78;3.60;;;;;;;;;;5092132;28;20500;-67
2023/05/06 07:44:58;;;;;;;5.70;3.17;;;;;;;;;;5074451;28;20036;-67
2023/05/06 07:47:27;;;;;;;7.47;3.70;;;;;;;;;;5092416;28;20040;-66
2023/05/06 07:49:55;;;;;;;6.60;3.70;;;;;;;;;;5091954;28;20036;-67
2023/05/06 07:52:23;;;;;;;4.35;3.45;;;;;;;;;;5076717;28;20468;-67
2023/05/06 07:54:50;;;;;;;4.65;3.22;;;;;;;;;;5069933;28;20394;-68
2023/05/06 07:57:18;;;;;;;4.47;3.30;;;;;;;;;;5052899;28;20053;-63
2023/05/06 07:59:49;;;;;;;7.50;3.78;;;;;;;;;;5072475;28;20041;-65
2023/05/06 08:02:17;;;;;;;6.57;3.70;;;;;;;;;;5072003;28;20049;-65
2023/05/06 08:04:45;;;;;;;8.43;3.78;;;;;;;;;;5072340;28;20045;-65
2023/05/06 08:07:14;;;;;;;6.88;3.97;;;;;;;;;;5072310;28;20047;-66
2023/05/06 08:09:42;;;;;;;10.13;4.47;;;;;;;;;;5072314;28;20045;-64
2023/05/06 08:12:09;;;;;;;9.00;3.78;;;;;;;;;;5072372;28;20048;-65
2023/05/06 08:14:37;;;;;;;4.03;3.00;;;;;;;;;;5072301;28;20071;-66
2023/05/06 08:17:04;;;;;;;5.15;3.00;;;;;;;;;;5072267;28;20096;-63
2023/05/06 08:19:31;;;;;;;7.57;3.50;;;;;;;;;;5072147;28;20041;-64
2023/05/06 08:21:59;;;;;;;6.95;3.70;;;;;;;;;;5072068;28;20045;-63
2023/05/06 08:24:26;;;;;;;6.47;3.63;;;;;;;;;;5072246;28;20044;-64
2023/05/06 08:26:54;;;;;;;6.03;3.80;;;;;;;;;;5072055;28;20124;-64
2023/05/06 08:29:21;;;;;;;7.25;3.60;;;;;;;;;;5071809;28;20483;-64
2023/05/06 08:31:49;;;;;;;5.40;3.20;;;;;;;;;;5060893;28;20066;-64
2023/05/06 08:34:19;;;;;;;5.55;3.00;;;;;;;;;;5071843;28;20064;-65
2023/05/06 08:36:47;;;;;;;7.20;3.22;;;;;;;;;;5076922;28;20070;-64
2023/05/06 08:39:15;;;;;;;5.60;3.20;;;;;;;;;;5067278;28;20040;-64
2023/05/06 08:41:47;;;;;;;7.85;3.20;;;;;;;;;;5077317;28;20048;-64
2023/05/06 08:44:17;;;;;;;6.47;3.40;;;;;;;;;;5080256;28;20036;-64
2023/05/06 08:46:45;;;;;;;5.05;3.22;;;;;;;;;;5079151;28;20036;-64
2023/05/06 08:49:13;;;;;;;6.05;3.55;;;;;;;;;;5077340;28;20105;-64
2023/05/06 08:51:45;;;;;;;7.05;3.25;;;;;;;;;;5092141;28;20043;-64
2023/05/06 08:54:13;;;;;;;14.70;4.18;;;;;;;;;;5090734;28;20044;-67
2023/05/06 08:56:43;;;;;;;6.30;3.83;;;;;;;;;;5095271;28;20485;-63
2023/05/06 08:59:12;;;;;;;7.10;3.65;;;;;;;;;;5088873;28;20616;-63
2023/05/06 09:01:40;;;;;;;6.18;3.38;;;;;;;;;;5076606;28;20070;-63
2023/05/06 09:04:08;;;;;;;6.55;3.80;;;;;;;;;;5074837;28;20044;-63
2023/05/06 09:06:35;;;;;;;4.85;3.67;;;;;;;;;;5081465;28;20044;-63
2023/05/06 09:09:03;;;;;;;4.85;3.30;;;;;;;;;;5088116;28;20086;-63
2023/05/06 09:11:30;;;;;;;5.63;3.40;;;;;;;;;;5080202;28;20554;-63
2023/05/06 09:14:11;;;;;;;5.25;3.65;;;;;;;;;;5073249;28;20044;-63
2023/05/06 09:16:39;;;;;;;6.03;3.40;;;;;;;;;;5073261;28;20076;-64
2023/05/06 09:19:07;;;;;;;7.65;3.90;;;;;;;;;;5056681;28;20040;-64
2023/05/06 09:21:35;;;;;;;6.38;3.70;;;;;;;;;;5074763;28;20410;-64
2023/05/06 09:24:04;;;;;;;5.40;3.78;;;;;;;;;;5073364;28;20040;-64
2023/05/06 09:26:32;;;;;;;5.30;3.33;;;;;;;;;;5075196;28;20064;-64
2023/05/06 09:29:00;;;;;;;6.53;3.80;;;;;;;;;;5074717;28;20552;-64
2023/05/06 09:31:28;;;;;;;4.43;3.30;;;;;;;;;;5074915;28;20071;-64
2023/05/06 09:33:56;;;;;;;6.35;3.78;;;;;;;;;;5074532;28;20037;-64
2023/05/06 09:36:26;;;;;;;5.82;3.60;;;;;;;;;;5056440;28;20040;-64
2023/05/06 09:38:55;;;;;;;9.23;3.83;;;;;;;;;;5056830;28;20123;-64
2023/05/06 09:41:24;;;;;;;6.30;3.70;;;;;;;;;;5086492;28;20478;-64
2023/05/06 09:43:52;;;;;;;10.15;4.32;;;;;;;;;;5094601;28;20126;-64
2023/05/06 09:46:23;;;;;;;8.75;3.80;;;;;;;;;;5092561;28;20032;-64
2023/05/06 09:48:51;;;;;;;9.48;6.88;;;;;;;;;;5079228;28;20028;-65
2023/05/06 09:51:19;;;;;;;5.28;3.80;;;;;;;;;;5074193;28;20056;-65
2023/05/06 09:53:47;;;;;;;6.85;3.72;;;;;;;;;;5076995;28;20037;-64
2023/05/06 09:56:15;;;;;;;10.65;3.72;;;;;;;;;;5058747;28;20036;-64
2023/05/06 09:58:42;;;;;;;8.00;4.50;;;;;;;;;;5082133;28;20379;-64
2023/05/06 10:01:12;;;;;;;6.05;4.38;;;;;;;;;;5090757;28;20559;-64
2023/05/06 10:03:52;;;;;;;6.50;4.40;;;;;;;;;;5093572;28;20537;-64
2023/05/06 10:06:22;;;;;;;7.28;5.10;;;;;;;;;;5076116;28;20049;-64
2023/05/06 10:08:50;;;;;;;8.95;4.22;;;;;;;;;;5073912;28;20094;-64
2023/05/06 10:11:19;;;;;;;6.45;4.15;;;;;;;;;;5073546;28;20040;-64
2023/05/06 10:13:47;;;;;;;5.80;4.00;;;;;;;;;;5073785;28;20037;-64
2023/05/06 10:16:15;;;;;;;9.57;4.80;;;;;;;;;;5080474;28;20115;-65
2023/05/06 10:18:43;;;;;;;5.85;4.60;;;;;;;;;;5073488;28;20135;-65
2023/05/06 10:21:14;;;;;;;6.55;4.10;;;;;;;;;;5073701;28;20063;-64
2023/05/06 10:23:51;;;;;;;5.55;3.35;;;;;;;;;;5073234;28;20059;-64
2023/05/06 10:26:20;;;;;;;6.72;3.60;;;;;;;;;;5073569;28;20049;-64
2023/05/06 10:28:51;;;;;;;7.00;3.92;;;;;;;;;;5073302;28;20040;-64
2023/05/06 10:31:19;;;;;;;6.05;3.70;;;;;;;;;;5073465;28;20032;-64
2023/05/06 10:33:48;;;;;;;8.73;3.70;;;;;;;;;;5078340;28;20036;-64
2023/05/06 10:36:19;;;;;;;7.40;3.80;;;;;;;;;;5085872;28;20052;-64
2023/05/06 10:38:51;;;;;;;6.60;3.22;;;;;;;;;;5073131;28;20161;-64
2023/05/06 10:41:20;;;;;;;5.47;3.53;;;;;;;;;;5084704;28;20048;-64
2023/05/06 10:43:55;;;;;;;4.65;3.33;;;;;;;;;;5085530;28;20097;-64
2023/05/06 10:46:24;;;;;;;11.60;6.40;;;;;;;;;;5075274;28;20052;-64
2023/05/06 10:49:09;;;;;;;6.43;4.57;;;;;;;;;;5072807;28;20046;-64
2023/05/06 10:51:42;;;;;;;5.95;3.72;;;;;;;;;;5071758;28;20098;-64
2023/05/06 10:54:10;;;;;;;4.78;3.10;;;;;;;;;;5072804;28;20032;-65
2023/05/06 10:56:50;;;;;;;3.53;3.20;;;;;;;;;;5081750;28;20385;-64
2023/05/06 10:59:22;;;;;;;6.65;3.28;;;;;;;;;;5093354;28;20040;-64
2023/05/06 11:01:57;;;;;;;9.18;3.40;;;;;;;;;;5066641;28;20055;-64
2023/05/06 11:04:24;;;;;;;8.23;6.55;;;;;;;;;;5086439;28;20142;-64
2023/05/06 11:06:52;;;;;;;6.15;3.78;;;;;;;;;;5089498;28;20042;-64
2023/05/06 11:09:24;;;;;;;9.52;5.32;;;;;;;;;;5091198;28;20040;-64
2023/05/06 11:12:02;;;;;;;15.80;12.95;;;;;;;;;;5073632;28;20129;-64
2023/05/06 11:14:36;;;;;;;16.23;11.57;;;;;;;;;;5055316;28;20044;-64
2023/05/06 11:17:04;;;;;;;23.60;17.08;;;;;;;;;;5086051;28;20397;-64
2023/05/06 11:19:33;;;;;;;157.10;127.57;;;;;;;;;;5073026;28;20176;-64
2023/05/06 11:22:02;;;;;;;6.07;3.90;;;;;;;;;;5072749;28;20079;-64
2023/05/06 11:24:31;;;;;;;6.80;4.80;;;;;;;;;;5072663;28;20060;-65
2023/05/06 11:27:00;;;;;;;16.25;12.35;;;;;;;;;;5072907;28;20052;-65
2023/05/06 11:29:27;;;;;;;6.30;4.28;;;;;;;;;;5054423;28;20490;-64
2023/05/06 11:31:55;;;;;;;5.03;3.90;;;;;;;;;;5077144;28;20055;-64
2023/05/06 11:34:29;;;;;;;4.45;3.25;;;;;;;;;;5086062;28;20074;-64
2023/05/06 11:36:57;;;;;;;6.50;4.80;;;;;;;;;;5072237;28;20036;-64
2023/05/06 11:39:32;;;;;;;8.88;4.90;;;;;;;;;;5072284;28;20071;-64
2023/05/06 11:42:06;;;;;;;7.25;4.40;;;;;;;;;;5090591;28;20048;-64
2023/05/06 11:44:35;;;;;;;8.77;4.43;;;;;;;;;;5093022;28;20070;-64
2023/05/06 11:47:07;;;;;;;9.85;5.18;;;;;;;;;;5092976;28;20078;-62
2023/05/06 11:49:42;;;;;;;8.55;4.28;;;;;;;;;;5092848;28;20032;-64
2023/05/06 11:52:10;;;;;;;8.05;4.00;;;;;;;;;;5092771;28;20135;-63
2023/05/06 11:54:39;;;;;;;5.50;3.92;;;;;;;;;;5092884;28;20032;-63
2023/05/06 11:57:06;;;;;;;9.20;3.92;;;;;;;;;;5093070;28;20047;-65
2023/05/06 11:59:36;;;;;;;3.60;3.08;;;;;;;;;;5092807;28;20035;-64
2023/05/06 12:02:04;;;;;;;4.78;3.25;;;;;;;;;;5092164;28;20047;-64
2023/05/06 12:04:41;;;;;;;4.82;3.28;;;;;;;;;;5091345;28;20040;-63
2023/05/06 12:07:10;;;;;;;6.72;3.67;;;;;;;;;;5092454;28;20052;-63
2023/05/06 12:09:38;;;;;;;5.60;3.58;;;;;;;;;;5092248;28;20039;-63
2023/05/06 12:12:06;;;;;;;7.65;4.07;;;;;;;;;;5092192;28;20498;-64
2023/05/06 12:14:35;;;;;;;6.18;3.17;;;;;;;;;;5092697;28;20036;-64
2023/05/06 12:17:06;;;;;;;5.75;4.00;;;;;;;;;;5092646;28;20048;-64
2023/05/06 12:19:34;;;;;;;5.30;3.38;;;;;;;;;;5093140;28;20074;-65
2023/05/06 12:22:15;;;;;;;6.90;3.65;;;;;;;;;;5086275;28;20119;-63
2023/05/06 12:24:42;;;;;;;5.35;3.40;;;;;;;;;;5081112;28;20059;-63
2023/05/06 12:27:10;;;;;;;5.30;3.25;;;;;;;;;;5072057;28;20043;-64
2023/05/06 12:29:37;;;;;;;5.82;3.08;;;;;;;;;;5074368;28;20393;-64
2023/05/06 12:32:11;;;;;;;7.90;3.40;;;;;;;;;;5076247;28;20498;-64
2023/05/06 12:34:39;;;;;;;4.72;3.20;;;;;;;;;;5081048;28;20498;-63
2023/05/06 12:37:07;;;;;;;3.13;2.70;;;;;;;;;;5078280;28;20046;-64
2023/05/06 12:39:36;;;;;;;3.97;2.85;;;;;;;;;;5084761;28;20105;-63
2023/05/06 12:42:03;;;;;;;4.00;2.90;;;;;;;;;;5093960;28;20119;-64
2023/05/06 12:44:37;;;;;;;9.88;6.50;;;;;;;;;;5096150;28;20075;-62
2023/05/06 12:47:17;;;;;;;6.18;3.70;;;;;;;;;;5086094;28;20040;-63
2023/05/06 12:49:45;;;;;;;10.95;5.80;;;;;;;;;;5085533;28;20433;-63
2023/05/06 12:52:12;;;;;;;16.20;10.30;;;;;;;;;;5074714;28;20045;-66
2023/05/06 12:54:40;;;;;;;7.95;3.40;;;;;;;;;;5076015;28;20033;-64
2023/05/06 12:57:07;;;;;;;6.43;3.20;;;;;;;;;;5075964;28;20098;-63
2023/05/06 12:59:35;;;;;;;7.93;3.20;;;;;;;;;;5083676;28;20036;-63
2023/05/06 13:02:03;;;;;;;6.60;3.00;;;;;;;;;;5076109;28;20032;-62
2023/05/06 13:04:31;;;;;;;9.68;5.85;;;;;;;;;;5074676;28;20382;-64
2023/05/06 13:06:58;;;;;;;7.68;5.13;;;;;;;;;;5077673;28;20052;-64
2023/05/06 13:09:26;;;;;;;8.52;5.80;;;;;;;;;;5096296;28;20032;-64
2023/05/06 13:11:54;;;;;;;5.88;3.45;;;;;;;;;;5095674;28;20079;-64
2023/05/06 13:14:22;;;;;;;6.38;3.10;;;;;;;;;;5093064;28;20068;-64
2023/05/06 13:16:49;;;;;;;6.50;3.38;;;;;;;;;;5081482;28;20040;-64
2023/05/06 13:19:17;;;;;;;4.82;3.10;;;;;;;;;;5075613;28;20070;-63
2023/05/06 13:22:02;;;;;;;4.43;3.00;;;;;;;;;;5075784;28;20040;-63
2023/05/06 13:24:31;;;;;;;4.82;3.30;;;;;;;;;;5075652;28;20040;-64
2023/05/06 13:26:59;;;;;;;4.85;3.42;;;;;;;;;;5075825;28;20436;-64
2023/05/06 13:29:28;;;;;;;5.18;3.17;;;;;;;;;;5075618;28;20482;-64
2023/05/06 13:31:56;;;;;;;7.50;4.07;;;;;;;;;;5087299;28;20511;-64
2023/05/06 13:34:24;;;;;;;6.85;4.10;;;;;;;;;;5094939;28;20036;-64
2023/05/06 13:36:53;;;;;;;5.57;3.25;;;;;;;;;;5095258;28;20032;-64
2023/05/06 13:39:21;;;;;;;5.13;3.30;;;;;;;;;;5085676;28;20533;-63
2023/05/06 13:41:49;;;;;;;8.50;3.00;;;;;;;;;;5089449;28;20035;-63
2023/05/06 13:44:16;;;;;;;6.38;4.03;;;;;;;;;;5094749;28;20046;-62
2023/05/06 13:46:44;;;;;;;7.65;3.13;;;;;;;;;;5094538;28;20064;-62
2023/05/06 13:49:13;;;;;;;9.38;3.72;;;;;;;;;;5095290;28;20404;-62
2023/05/06 13:51:41;;;;;;;6.47;3.35;;;;;;;;;;5094846;28;20036;-61
2023/05/06 13:54:09;;;;;;;7.43;3.20;;;;;;;;;;5094308;28;20032;-63
2023/05/06 13:56:36;;;;;;;6.82;3.22;;;;;;;;;;5094746;28;20044;-62
2023/05/06 13:59:04;;;;;;;7.70;2.97;;;;;;;;;;5094370;28;20036;-62
2023/05/06 14:01:31;;;;;;;4.00;3.00;;;;;;;;;;5093745;28;20032;-63
2023/05/06 14:03:59;;;;;;;8.25;3.58;;;;;;;;;;5083363;28;20144;-62
2023/05/06 14:06:26;;;;;;;6.53;3.20;;;;;;;;;;5074341;28;20036;-62
2023/05/06 14:08:54;;;;;;;6.55;2.75;;;;;;;;;;5073958;28;20040;-62
2023/05/06 14:11:22;;;;;;;5.88;3.10;;;;;;;;;;5073822;28;20036;-62
2023/05/06 14:13:49;;;;;;;6.18;3.20;;;;;;;;;;5073004;28;20032;-61
2023/05/06 14:16:17;;;;;;;5.15;2.70;;;;;;;;;;5073473;28;20033;-62
2023/05/06 14:18:44;;;;;;;6.80;3.20;;;;;;;;;;5084694;28;20225;-63
2023/05/06 14:21:12;;;;;;;5.60;3.25;;;;;;;;;;5075793;28;20071;-63
2023/05/06 14:23:39;;;;;;;5.60;3.22;;;;;;;;;;5073614;28;20540;-64
2023/05/06 14:26:07;;;;;;;4.20;3.05;;;;;;;;;;5072002;28;20127;-62
2023/05/06 14:28:35;;;;;;;10.05;5.00;;;;;;;;;;5074044;28;20094;-63
2023/05/06 14:31:02;;;;;;;6.53;2.70;;;;;;;;;;5074062;28;20096;-62
2023/05/06 14:33:29;;;;;;;7.00;4.20;;;;;;;;;;5093710;28;20379;-62
2023/05/06 14:35:57;;;;;;;4.75;2.85;;;;;;;;;;5093575;28;20098;-62
2023/05/06 14:38:24;;;;;;;4.95;2.83;;;;;;;;;;5092004;28;20071;-63
2023/05/06 14:40:52;;;;;;;11.70;3.40;;;;;;;;;;5081260;28;20502;-62
2023/05/06 14:43:19;;;;;;;3.53;2.70;;;;;;;;;;5093817;28;20040;-62